Time;durP1;ratioP1;P1;durP2;ratioP2;P2;SDS_P1;SDS_P2;PMS_P1;PMS_P2;Temp;Humidity;BMP_temperature;BMP_pressure;BME280_temperature;BME280_humidity;BME280_pressure;Samples;Min_cycle;Max_cycle;Signal;HPM_P1;HPM_P2
2023/07/29 00:01:42;;;;;;;0.70;0.70;;;23.80;68.50;;;;;;6137421;22;96010;-87
2023/07/29 00:04:09;;;;;;;0.85;0.80;;;23.80;68.50;;;;;;6139123;22;96445;-90
2023/07/29 00:06:35;;;;;;;1.48;0.70;;;23.80;68.50;;;;;;6142539;22;92655;-88
2023/07/29 00:09:01;;;;;;;1.38;0.70;;;23.80;68.40;;;;;;6141139;22;92532;-83
2023/07/29 00:11:27;;;;;;;0.80;0.80;;;23.80;68.40;;;;;;6141388;22;93141;-85
2023/07/29 00:13:53;;;;;;;1.15;1.00;;;23.80;68.50;;;;;;6142204;22;93283;-87
2023/07/29 00:16:21;;;;;;;0.98;0.80;;;23.80;68.40;;;;;;6142298;22;92645;-85
2023/07/29 00:18:48;;;;;;;0.85;0.80;;;23.80;68.40;;;;;;6140824;22;92124;-89
2023/07/29 00:21:13;;;;;;;1.08;0.93;;;23.80;68.40;;;;;;6141294;22;94117;-87
2023/07/29 00:23:39;;;;;;;1.13;1.02;;;23.80;68.60;;;;;;6139771;22;92986;-87
2023/07/29 00:26:05;;;;;;;1.20;0.80;;;23.80;68.40;;;;;;6141573;22;93240;-84
2023/07/29 00:28:31;;;;;;;0.85;0.73;;;23.80;68.50;;;;;;6139680;22;92182;-88
2023/07/29 00:30:56;;;;;;;0.70;0.70;;;23.80;69.10;;;;;;6141579;22;93146;-88
2023/07/29 00:33:22;;;;;;;0.75;0.75;;;23.70;68.30;;;;;;6142445;22;92612;-85
2023/07/29 00:35:48;;;;;;;1.75;0.90;;;23.80;68.30;;;;;;6139779;22;92145;-86
2023/07/29 00:38:13;;;;;;;0.70;0.63;;;23.70;68.50;;;;;;6141681;22;92896;-84
2023/07/29 00:40:39;;;;;;;0.77;0.77;;;23.70;68.60;;;;;;6138437;22;94924;-86
2023/07/29 00:43:05;;;;;;;0.63;0.60;;;23.70;68.10;;;;;;6141546;22;92874;-84
2023/07/29 00:45:32;;;;;;;1.40;0.80;;;23.70;68.20;;;;;;6142862;22;92474;-87
2023/07/29 00:47:59;;;;;;;0.95;0.85;;;23.70;68.30;;;;;;6141098;22;92612;-81
2023/07/29 00:50:27;;;;;;;1.05;0.70;;;23.70;68.10;;;;;;6140238;22;93723;-85
2023/07/29 00:52:54;;;;;;;0.70;0.70;;;23.70;68.30;;;;;;6141855;22;92431;-82
2023/07/29 00:55:19;;;;;;;0.98;0.70;;;23.70;68.20;;;;;;6139385;22;92223;-89
2023/07/29 00:57:48;;;;;;;1.10;1.00;;;23.70;68.10;;;;;;6140912;22;92551;-87
2023/07/29 01:00:15;;;;;;;0.70;0.70;;;23.70;68.10;;;;;;6142280;22;92447;-87
2023/07/29 01:02:41;;;;;;;0.80;0.80;;;23.70;68.20;;;;;;6141119;22;92617;-87
2023/07/29 01:05:07;;;;;;;0.77;0.68;;;23.70;68.30;;;;;;6141554;22;92320;-87
2023/07/29 01:07:39;;;;;;;1.10;0.70;;;23.70;68.00;;;;;;6141938;22;91948;-84
2023/07/29 01:10:10;;;;;;;1.38;0.82;;;23.70;68.00;;;;;;6141565;22;92187;-85
2023/07/29 01:13:00;;;;;;;0.70;0.70;;;23.70;68.30;;;;;;6142246;22;92328;-89
2023/07/29 01:15:39;;;;;;;0.60;0.60;;;23.70;68.10;;;;;;6141112;22;93544;-84
2023/07/29 01:18:14;;;;;;;1.30;0.80;;;23.70;68.20;;;;;;6141878;22;92498;-84
2023/07/29 01:20:43;;;;;;;1.05;0.80;;;23.70;68.10;;;;;;6138418;22;96736;-86
2023/07/29 01:23:09;;;;;;;;;;;23.70;68.00;;;;;;6141773;22;93211;-85
2023/07/29 01:25:35;;;;;;;0.73;0.63;;;23.70;68.00;;;;;;6144122;22;92191;-86
2023/07/29 01:28:00;;;;;;;0.60;0.60;;;23.70;68.00;;;;;;6140859;22;92198;-87
2023/07/29 01:30:33;;;;;;;0.82;0.80;;;23.70;68.00;;;;;;6142420;22;93615;-85
2023/07/29 01:33:19;;;;;;;0.82;0.60;;;23.70;68.10;;;;;;6142440;22;92685;-87
2023/07/29 01:36:04;;;;;;;0.77;0.77;;;23.70;68.00;;;;;;6125916;22;92734;-87
2023/07/29 01:38:35;;;;;;;0.70;0.70;;;23.70;67.80;;;;;;6141908;22;92478;-86
2023/07/29 01:41:08;;;;;;;0.60;0.60;;;23.70;68.10;;;;;;6141230;22;94917;-86
2023/07/29 01:43:34;;;;;;;0.93;0.50;;;23.70;68.10;;;;;;6143449;22;93516;-88
2023/07/29 01:46:01;;;;;;;0.73;0.73;;;23.60;68.90;;;;;;6143173;22;92281;-87
2023/07/29 01:48:28;;;;;;;1.45;0.80;;;23.70;68.10;;;;;;6144108;22;92170;-89
2023/07/29 01:50:54;;;;;;;0.82;0.80;;;23.60;68.00;;;;;;6140371;22;95496;-84
2023/07/29 01:53:20;;;;;;;0.80;0.70;;;23.70;68.20;;;;;;6140405;22;95385;-83
2023/07/29 01:55:45;;;;;;;0.70;0.60;;;23.70;68.00;;;;;;6142998;22;92489;-88
2023/07/29 01:58:11;;;;;;;0.60;0.60;;;23.70;68.00;;;;;;6142709;22;91790;-86
2023/07/29 02:00:37;;;;;;;0.60;0.60;;;23.60;68.00;;;;;;6145530;22;92964;-86
2023/07/29 02:03:02;;;;;;;0.70;0.60;;;23.70;68.00;;;;;;6142387;22;92558;-85
2023/07/29 02:05:28;;;;;;;0.80;0.70;;;23.60;68.00;;;;;;6142352;22;93304;-86
2023/07/29 02:07:54;;;;;;;0.88;0.70;;;23.60;67.90;;;;;;6142862;22;92135;-86
2023/07/29 02:10:19;;;;;;;0.60;0.60;;;23.60;67.50;;;;;;6140166;22;95791;-86
2023/07/29 02:12:45;;;;;;;0.65;0.65;;;23.60;67.80;;;;;;6142466;22;92954;-85
2023/07/29 02:15:10;;;;;;;0.70;0.60;;;23.60;67.70;;;;;;6143759;22;92889;-87
2023/07/29 02:17:36;;;;;;;0.82;0.80;;;23.60;67.80;;;;;;6142100;22;92340;-89
2023/07/29 02:20:03;;;;;;;1.25;0.80;;;23.60;67.90;;;;;;6140582;22;92861;-84
2023/07/29 02:22:29;;;;;;;0.80;0.80;;;23.60;68.00;;;;;;6142336;22;92106;-88
2023/07/29 02:24:55;;;;;;;0.90;0.50;;;23.60;68.00;;;;;;6143022;22;93015;-86
2023/07/29 02:27:21;;;;;;;1.42;1.00;;;23.60;67.70;;;;;;6144022;22;92768;-84
2023/07/29 02:29:47;;;;;;;1.98;0.65;;;23.60;67.70;;;;;;6141841;22;93861;-84
2023/07/29 02:32:12;;;;;;;0.82;0.70;;;23.60;67.60;;;;;;6142263;22;94143;-83
2023/07/29 02:34:38;;;;;;;1.02;0.65;;;23.60;67.60;;;;;;6142361;22;92314;-88
2023/07/29 02:37:04;;;;;;;1.15;0.80;;;23.70;67.50;;;;;;6142468;22;92356;-85
2023/07/29 02:39:30;;;;;;;0.70;0.60;;;23.70;67.50;;;;;;6143295;22;92432;-87
2023/07/29 02:41:58;;;;;;;0.70;0.70;;;23.70;67.40;;;;;;6142497;22;93135;-90
2023/07/29 02:44:23;;;;;;;0.70;0.70;;;23.70;67.40;;;;;;6142547;22;92161;-85
2023/07/29 02:46:49;;;;;;;0.60;0.60;;;23.70;67.30;;;;;;6142215;22;92097;-83
2023/07/29 02:49:15;;;;;;;0.60;0.60;;;23.70;67.20;;;;;;6141460;22;92977;-89
2023/07/29 02:51:40;;;;;;;0.70;0.70;;;23.70;67.30;;;;;;6142237;22;92428;-85
2023/07/29 02:54:06;;;;;;;0.60;0.60;;;23.70;67.30;;;;;;6142742;22;92873;-88
2023/07/29 02:56:31;;;;;;;2.28;0.75;;;23.70;67.40;;;;;;6141755;22;92416;-89
2023/07/29 02:58:57;;;;;;;0.60;0.60;;;23.70;67.30;;;;;;6140925;22;93006;-89
2023/07/29 03:01:24;;;;;;;0.80;0.68;;;23.70;67.40;;;;;;6141098;22;92713;-85
2023/07/29 03:03:51;;;;;;;0.88;0.80;;;23.70;67.30;;;;;;6142357;22;92672;-88
2023/07/29 03:06:16;;;;;;;0.68;0.50;;;23.70;67.20;;;;;;6143680;22;92291;-88
2023/07/29 03:08:42;;;;;;;0.75;0.70;;;23.70;67.10;;;;;;6141562;22;92690;-86
2023/07/29 03:11:10;;;;;;;0.60;0.60;;;23.70;67.30;;;;;;6141806;22;92592;-88
2023/07/29 03:13:36;;;;;;;0.80;0.60;;;23.70;67.30;;;;;;6142606;22;92609;-86
2023/07/29 03:16:14;;;;;;;1.23;0.77;;;23.70;67.40;;;;;;6142298;22;92646;-85
2023/07/29 03:18:40;;;;;;;0.63;0.63;;;23.70;67.40;;;;;;6140193;22;94513;-88
2023/07/29 03:21:06;;;;;;;0.95;0.70;;;23.70;67.40;;;;;;6142147;22;93076;-89
2023/07/29 03:23:33;;;;;;;0.95;0.80;;;23.70;67.30;;;;;;6140755;22;91887;-88
2023/07/29 03:26:01;;;;;;;0.65;0.65;;;23.70;67.20;;;;;;6141480;22;92537;-84
2023/07/29 03:28:29;;;;;;;0.50;0.50;;;23.70;67.20;;;;;;6141224;22;93513;-87
2023/07/29 03:30:58;;;;;;;0.73;0.70;;;23.70;67.10;;;;;;6141307;22;92962;-84
2023/07/29 03:33:25;;;;;;;0.80;0.80;;;23.70;66.90;;;;;;6142984;22;92068;-88
2023/07/29 03:35:54;;;;;;;0.73;0.65;;;23.60;67.00;;;;;;6141890;22;92185;-88
2023/07/29 03:38:20;;;;;;;0.80;0.80;;;23.60;67.10;;;;;;6142414;22;93423;-86
2023/07/29 03:40:46;;;;;;;0.57;0.57;;;23.70;67.20;;;;;;6142211;22;92799;-88
2023/07/29 03:43:11;;;;;;;0.95;0.70;;;23.70;67.10;;;;;;6141684;22;93889;-86
2023/07/29 03:45:38;;;;;;;0.80;0.80;;;23.60;67.10;;;;;;6141460;22;92251;-86
2023/07/29 03:48:04;;;;;;;0.70;0.70;;;23.60;67.10;;;;;;6141399;22;96652;-85
2023/07/29 03:50:30;;;;;;;0.70;0.70;;;23.60;67.10;;;;;;6141032;22;92659;-88
2023/07/29 03:52:56;;;;;;;0.73;0.63;;;23.60;67.10;;;;;;6142124;22;92452;-88
2023/07/29 03:55:22;;;;;;;1.23;0.80;;;23.60;67.00;;;;;;6140826;22;92199;-86
2023/07/29 03:57:48;;;;;;;0.60;0.60;;;23.60;66.90;;;;;;6139867;22;93880;-87
2023/07/29 04:00:13;;;;;;;1.13;0.80;;;23.60;67.00;;;;;;6142660;22;93352;-86
2023/07/29 04:02:42;;;;;;;0.95;0.82;;;23.60;67.00;;;;;;6141368;22;92330;-85
2023/07/29 04:05:08;;;;;;;0.60;0.60;;;23.60;67.20;;;;;;6141519;22;92156;-86
2023/07/29 04:07:37;;;;;;;0.70;0.70;;;23.60;67.20;;;;;;6141281;22;93326;-87
2023/07/29 04:10:03;;;;;;;0.82;0.55;;;23.60;66.80;;;;;;6140426;22;93276;-86
2023/07/29 04:12:29;;;;;;;0.60;0.60;;;23.60;66.90;;;;;;6142543;22;92721;-87
2023/07/29 04:14:54;;;;;;;0.90;0.80;;;23.60;66.90;;;;;;6141166;22;93220;-86
2023/07/29 04:17:20;;;;;;;0.80;0.80;;;23.60;67.10;;;;;;6141140;22;92641;-88
2023/07/29 04:19:46;;;;;;;0.77;0.65;;;23.60;67.10;;;;;;6141469;22;92752;-89
2023/07/29 04:22:15;;;;;;;0.98;0.50;;;23.60;66.90;;;;;;6141132;22;92305;-84
2023/07/29 04:24:41;;;;;;;1.23;0.70;;;23.60;66.70;;;;;;6141945;22;91809;-83
2023/07/29 04:27:06;;;;;;;1.00;0.80;;;23.70;66.80;;;;;;6142609;22;92846;-87
2023/07/29 04:29:32;;;;;;;1.45;0.80;;;23.60;66.60;;;;;;6138988;22;95595;-86
2023/07/29 04:31:58;;;;;;;0.73;0.73;;;23.60;66.60;;;;;;6141566;22;93531;-86
2023/07/29 04:34:23;;;;;;;0.60;0.60;;;23.60;66.30;;;;;;6140616;22;92493;-88
2023/07/29 04:36:49;;;;;;;0.70;0.70;;;23.60;66.30;;;;;;6141561;22;92892;-84
2023/07/29 04:39:15;;;;;;;0.70;0.70;;;23.60;67.30;;;;;;6141721;22;92761;-86
2023/07/29 04:41:41;;;;;;;0.70;0.70;;;23.60;66.50;;;;;;6142001;22;92788;-88
2023/07/29 04:44:07;;;;;;;0.70;0.70;;;23.60;66.50;;;;;;6139794;22;92329;-85
2023/07/29 04:46:33;;;;;;;1.85;0.77;;;23.60;66.30;;;;;;6141101;22;92869;-86
2023/07/29 04:48:58;;;;;;;0.60;0.60;;;23.60;66.40;;;;;;6141394;22;93118;-89
2023/07/29 04:51:24;;;;;;;0.60;0.60;;;23.60;66.40;;;;;;6142369;22;92921;-82
2023/07/29 04:53:50;;;;;;;0.80;0.75;;;23.60;66.50;;;;;;6141848;22;92261;-88
2023/07/29 04:56:16;;;;;;;0.73;0.70;;;23.60;66.50;;;;;;6140697;22;93776;-88
2023/07/29 04:58:41;;;;;;;0.73;0.73;;;23.60;66.60;;;;;;6141154;22;93838;-87
2023/07/29 05:01:07;;;;;;;0.85;0.70;;;23.60;66.50;;;;;;6140213;22;92428;-90
2023/07/29 05:03:33;;;;;;;0.65;0.60;;;23.60;66.50;;;;;;6139772;22;92514;-87
2023/07/29 05:05:59;;;;;;;0.95;0.90;;;23.60;66.40;;;;;;6138504;22;92747;-84
2023/07/29 05:08:26;;;;;;;0.60;0.60;;;23.60;66.40;;;;;;6138669;22;92829;-87
2023/07/29 05:10:52;;;;;;;0.60;0.60;;;23.60;66.50;;;;;;6138096;22;92651;-87
2023/07/29 05:13:18;;;;;;;0.95;0.88;;;23.50;66.20;;;;;;6140004;22;92189;-86
2023/07/29 05:15:44;;;;;;;0.60;0.60;;;23.60;66.20;;;;;;6139953;22;93175;-86
2023/07/29 05:18:11;;;;;;;1.30;0.70;;;23.60;66.20;;;;;;6140705;22;92280;-89
2023/07/29 05:20:36;;;;;;;0.68;0.68;;;23.60;66.20;;;;;;6136333;22;94081;-87
2023/07/29 05:23:02;;;;;;;1.70;0.70;;;23.60;66.20;;;;;;6137802;22;92798;-83
2023/07/29 05:25:29;;;;;;;0.70;0.70;;;23.60;66.30;;;;;;6140413;22;92520;-88
2023/07/29 05:27:54;;;;;;;0.80;0.80;;;23.60;66.20;;;;;;6140090;22;92082;-83
2023/07/29 05:30:20;;;;;;;0.68;0.68;;;23.60;66.20;;;;;;6141171;22;92607;-85
2023/07/29 05:32:46;;;;;;;0.77;0.70;;;23.50;66.20;;;;;;6138279;22;92866;-89
2023/07/29 05:35:11;;;;;;;0.55;0.52;;;23.60;66.20;;;;;;6138237;22;92795;-89
2023/07/29 05:37:41;;;;;;;1.25;0.70;;;23.60;66.20;;;;;;6139652;22;92707;-89
2023/07/29 05:40:08;;;;;;;2.05;0.73;;;23.60;66.80;;;;;;6129841;22;92473;-87
2023/07/29 05:42:34;;;;;;;1.05;0.95;;;23.60;66.10;;;;;;6158631;22;92686;-85
2023/07/29 05:45:00;;;;;;;0.68;0.65;;;23.50;66.00;;;;;;6138990;22;94575;-85
2023/07/29 05:47:26;;;;;;;0.95;0.88;;;23.50;66.10;;;;;;6139752;22;92897;-87
2023/07/29 05:49:52;;;;;;;2.03;0.90;;;23.50;66.10;;;;;;6141415;22;92291;-91
2023/07/29 05:52:18;;;;;;;0.90;0.70;;;23.60;65.70;;;;;;6142119;22;97442;-87
2023/07/29 05:54:44;;;;;;;1.35;1.00;;;23.60;65.70;;;;;;6138457;22;94894;-92
2023/07/29 05:57:11;;;;;;;1.00;0.88;;;23.50;65.20;;;;;;6141062;22;92476;-80
2023/07/29 05:59:36;;;;;;;2.70;1.10;;;23.50;65.40;;;;;;6141739;22;92694;-85
2023/07/29 06:02:03;;;;;;;3.67;1.30;;;23.50;65.30;;;;;;6142653;22;91511;-85
2023/07/29 06:04:28;;;;;;;2.95;1.30;;;23.50;65.20;;;;;;6142086;22;92988;-89
2023/07/29 06:06:55;;;;;;;1.30;1.20;;;23.50;65.20;;;;;;6142264;22;93172;-83
2023/07/29 06:09:25;;;;;;;2.38;1.40;;;23.50;65.20;;;;;;6145415;22;93341;-93
2023/07/29 06:11:51;;;;;;;3.10;1.67;;;23.50;65.00;;;;;;6147232;22;92103;-92
2023/07/29 06:14:16;;;;;;;3.03;1.40;;;23.60;65.00;;;;;;6145712;22;93075;-89
2023/07/29 06:16:42;;;;;;;3.72;1.50;;;23.60;65.00;;;;;;6145379;22;92801;-92
2023/07/29 06:19:08;;;;;;;2.33;1.65;;;23.60;65.10;;;;;;6144170;22;92902;-85
2023/07/29 06:21:34;;;;;;;2.30;1.58;;;23.60;65.20;;;;;;6146843;22;92316;-86
2023/07/29 06:24:00;;;;;;;5.05;1.65;;;23.70;65.00;;;;;;6145595;22;93193;-85
2023/07/29 06:26:26;;;;;;;4.65;1.77;;;23.70;64.90;;;;;;6142880;22;95206;-87
2023/07/29 06:28:51;;;;;;;6.15;1.67;;;23.70;64.80;;;;;;6142355;22;92433;-82
2023/07/29 06:31:17;;;;;;;3.88;1.77;;;23.70;64.60;;;;;;6141453;22;92333;-87
2023/07/29 06:33:46;;;;;;;5.10;1.45;;;23.70;64.80;;;;;;6141786;22;95216;-88
2023/07/29 06:36:12;;;;;;;4.18;1.70;;;23.70;64.70;;;;;;6142121;22;96272;-88
2023/07/29 06:38:38;;;;;;;9.10;1.75;;;23.70;64.90;;;;;;6143759;22;92488;-87
2023/07/29 06:41:05;;;;;;;4.32;1.45;;;23.70;65.10;;;;;;6139553;22;92598;-87
2023/07/29 06:43:30;;;;;;;4.85;1.20;;;23.70;64.90;;;;;;6138752;22;93682;-85
2023/07/29 06:45:56;;;;;;;3.22;1.80;;;23.70;64.90;;;;;;6139016;22;92286;-85
2023/07/29 06:48:22;;;;;;;4.72;1.90;;;23.70;65.00;;;;;;6140171;22;92596;-81
2023/07/29 06:50:49;;;;;;;4.93;1.80;;;23.70;64.70;;;;;;6138701;22;92799;-86
2023/07/29 06:53:15;;;;;;;10.68;1.67;;;23.70;64.70;;;;;;6138099;22;94886;-84
2023/07/29 06:55:41;;;;;;;7.70;1.70;;;23.70;64.70;;;;;;6137521;22;95354;-83
2023/07/29 06:58:07;;;;;;;4.40;1.98;;;23.70;64.70;;;;;;6139150;22;93322;-88
2023/07/29 07:00:33;;;;;;;5.38;1.75;;;23.70;64.80;;;;;;6141743;22;92565;-85
2023/07/29 07:03:01;;;;;;;3.08;1.63;;;23.70;64.70;;;;;;6140646;22;92655;-84
2023/07/29 07:05:26;;;;;;;10.65;1.60;;;23.70;64.90;;;;;;6139928;22;92513;-84
2023/07/29 07:07:52;;;;;;;3.67;1.60;;;23.70;64.40;;;;;;6133033;22;92630;-80
2023/07/29 07:10:18;;;;;;;6.78;1.80;;;23.70;64.50;;;;;;6138853;22;92467;-81
2023/07/29 07:12:44;;;;;;;3.85;1.73;;;23.70;65.10;;;;;;6139805;22;93119;-87
2023/07/29 07:15:09;;;;;;;7.25;1.73;;;23.70;64.10;;;;;;6140486;22;92060;-82
2023/07/29 07:17:35;;;;;;;5.50;1.58;;;23.70;64.20;;;;;;6139730;22;92617;-88
2023/07/29 07:20:01;;;;;;;5.22;1.60;;;23.70;63.80;;;;;;6139335;22;92569;-87
2023/07/29 07:22:26;;;;;;;10.18;2.13;;;23.70;63.80;;;;;;6138347;22;93676;-90
2023/07/29 07:24:52;;;;;;;15.20;3.65;;;23.70;64.00;;;;;;6139877;22;92288;-91
2023/07/29 07:27:18;;;;;;;11.27;2.40;;;23.70;63.80;;;;;;6142745;22;92357;-89
2023/07/29 07:29:43;;;;;;;24.45;5.38;;;23.70;64.00;;;;;;6141720;22;92769;-89
2023/07/29 07:32:09;;;;;;;17.90;4.40;;;23.70;63.40;;;;;;6142011;22;93052;-85
2023/07/29 07:34:35;;;;;;;17.75;4.20;;;23.70;63.50;;;;;;6140368;22;92439;-83
2023/07/29 07:37:00;;;;;;;17.08;4.78;;;23.70;63.70;;;;;;6138104;22;92345;-83
2023/07/29 07:39:26;;;;;;;16.65;4.40;;;23.60;63.50;;;;;;6140504;22;91470;-83
2023/07/29 07:41:52;;;;;;;12.60;4.25;;;23.60;63.40;;;;;;6139494;22;92421;-87
2023/07/29 07:44:19;;;;;;;17.25;4.38;;;23.60;63.70;;;;;;6138119;22;95075;-86
2023/07/29 07:46:45;;;;;;;14.48;4.13;;;23.60;63.50;;;;;;6139537;22;93278;-85
2023/07/29 07:49:12;;;;;;;11.63;3.90;;;23.60;63.80;;;;;;6141758;22;92128;-81
2023/07/29 07:51:40;;;;;;;9.95;3.67;;;23.60;63.50;;;;;;6141581;22;93421;-84
2023/07/29 07:54:06;;;;;;;9.25;3.40;;;23.50;63.50;;;;;;6141962;22;97162;-81
2023/07/29 07:56:31;;;;;;;9.50;3.45;;;23.60;63.60;;;;;;6138832;22;92581;-89
2023/07/29 07:58:57;;;;;;;9.95;3.08;;;23.60;63.60;;;;;;6140736;22;93589;-89
2023/07/29 08:01:23;;;;;;;9.57;3.28;;;23.60;63.70;;;;;;6140825;22;93523;-89
2023/07/29 08:03:48;;;;;;;11.40;3.30;;;23.70;63.30;;;;;;6140731;22;92935;-86
2023/07/29 08:06:14;;;;;;;11.55;3.58;;;23.70;63.10;;;;;;6142435;22;92814;-88
2023/07/29 08:08:39;;;;;;;7.85;3.25;;;23.80;63.10;;;;;;6142882;22;92238;-87
2023/07/29 08:11:05;;;;;;;12.13;3.55;;;23.70;63.20;;;;;;6139200;22;94146;-89
2023/07/29 08:13:31;;;;;;;10.20;3.38;;;23.80;63.40;;;;;;6140583;22;93725;-83
2023/07/29 08:15:56;;;;;;;9.80;3.33;;;23.80;63.30;;;;;;6140484;22;93291;-88
2023/07/29 08:18:22;;;;;;;5.72;2.65;;;23.90;63.20;;;;;;6142845;22;92265;-88
2023/07/29 08:20:57;;;;;;;8.20;2.80;;;23.90;63.00;;;;;;6141902;22;93128;-84
2023/07/29 08:23:26;;;;;;;10.82;3.20;;;23.90;63.00;;;;;;6142930;22;92387;-92
2023/07/29 08:25:56;;;;;;;12.65;2.47;;;23.90;62.90;;;;;;6142794;22;92271;-83
2023/07/29 08:28:24;;;;;;;9.55;2.85;;;23.90;62.90;;;;;;6145101;22;91351;-91
2023/07/29 08:30:50;;;;;;;5.57;2.43;;;23.80;63.10;;;;;;6143363;22;93254;-84
2023/07/29 08:33:16;;;;;;;5.05;1.80;;;23.80;63.30;;;;;;6144009;22;94092;-89
2023/07/29 08:35:41;;;;;;;4.43;1.75;;;23.80;63.00;;;;;;6142022;22;94197;-88
2023/07/29 08:38:07;;;;;;;7.25;2.47;;;23.80;62.70;;;;;;6144064;22;92720;-89
2023/07/29 08:40:35;;;;;;;5.22;2.17;;;23.80;63.10;;;;;;6142382;22;92654;-92
2023/07/29 08:43:04;;;;;;;5.63;2.38;;;23.80;62.80;;;;;;6142157;22;92096;-88
2023/07/29 08:45:34;;;;;;;;;;;23.80;62.90;;;;;;6141326;22;92518;-79
2023/07/29 08:48:02;;;;;;;;;;;23.90;62.70;;;;;;6140600;22;92143;-80
2023/07/29 08:50:28;;;;;;;2.85;1.50;;;23.90;62.80;;;;;;6139220;22;96213;-82
2023/07/29 08:52:54;;;;;;;5.28;2.03;;;23.90;62.50;;;;;;6140833;22;92651;-87
2023/07/29 08:55:21;;;;;;;3.03;2.00;;;23.90;62.60;;;;;;6139066;22;93095;-85
2023/07/29 08:57:47;;;;;;;4.97;1.63;;;23.90;62.50;;;;;;6139334;22;92476;-81
2023/07/29 09:00:13;;;;;;;5.70;1.75;;;24.00;62.70;;;;;;6141046;22;96910;-87
2023/07/29 09:02:39;;;;;;;7.07;1.77;;;24.10;62.40;;;;;;6142878;22;93020;-80
2023/07/29 09:05:05;;;;;;;3.03;1.58;;;24.10;62.10;;;;;;6137372;22;92865;-84
2023/07/29 09:07:33;;;;;;;3.30;1.83;;;24.30;61.90;;;;;;6137203;22;92433;-81
2023/07/29 09:09:58;;;;;;;5.47;2.05;;;24.30;61.40;;;;;;6140197;22;93089;-85
2023/07/29 09:12:24;;;;;;;3.42;1.80;;;24.40;61.40;;;;;;6142951;22;92691;-91
2023/07/29 09:14:53;;;;;;;34.67;7.93;;;24.40;61.40;;;;;;6142033;22;92651;-84
2023/07/29 09:17:21;;;;;;;25.95;5.60;;;24.50;61.80;;;;;;6143433;22;91495;-83
2023/07/29 09:19:48;;;;;;;19.55;5.63;;;24.50;61.80;;;;;;6136473;22;92996;-83
2023/07/29 09:22:19;;;;;;;19.65;5.35;;;24.60;62.00;;;;;;6136746;22;93827;-87
2023/07/29 09:24:45;;;;;;;20.58;5.32;;;24.60;61.90;;;;;;6137693;22;93164;-87
2023/07/29 09:27:27;;;;;;;34.25;8.32;;;24.50;61.80;;;;;;6138622;22;92298;-87
2023/07/29 09:29:53;;;;;;;38.05;8.98;;;24.50;62.90;;;;;;6135971;22;93366;-86
2023/07/29 09:32:21;;;;;;;25.42;7.30;;;24.60;62.60;;;;;;6134790;22;94906;-87
2023/07/29 09:34:46;;;;;;;24.13;6.50;;;24.60;62.40;;;;;;6137492;22;92140;-87
2023/07/29 09:37:22;;;;;;;22.13;6.43;;;24.60;62.20;;;;;;6138437;22;92792;-87
2023/07/29 09:39:49;;;;;;;15.90;5.40;;;24.60;62.10;;;;;;6138917;22;93035;-82
2023/07/29 09:42:22;;;;;;;20.15;5.10;;;24.60;62.20;;;;;;6144204;22;92667;-90
2023/07/29 09:44:49;;;;;;;8.65;3.33;;;24.60;61.60;;;;;;6140570;22;91885;-89
2023/07/29 09:47:24;;;;;;;15.50;4.65;;;24.50;61.40;;;;;;6141034;22;92511;-83
2023/07/29 09:49:51;;;;;;;11.45;4.43;;;24.40;61.70;;;;;;6137415;22;94000;-86
2023/07/29 09:52:18;;;;;;;12.27;3.42;;;24.30;61.50;;;;;;6139840;22;94133;-88
2023/07/29 09:54:44;;;;;;;9.25;3.83;;;24.30;61.80;;;;;;6142244;22;92259;-90
2023/07/29 09:57:14;;;;;;;13.60;4.32;;;24.40;62.20;;;;;;6148829;22;92429;-89
2023/07/29 09:59:40;;;;;;;11.05;4.63;;;24.50;62.30;;;;;;6144712;22;93051;-92
2023/07/29 10:02:15;;;;;;;11.85;4.05;;;24.60;62.70;;;;;;6145048;22;93187;-94
2023/07/29 10:04:45;;;;;;;9.60;3.78;;;24.60;63.00;;;;;;6146236;22;92560;-90
2023/07/29 10:07:12;;;;;;;7.93;3.45;;;24.60;63.30;;;;;;6137933;22;91246;-87
2023/07/29 10:09:39;;;;;;;9.30;3.13;;;24.70;63.80;;;;;;6157866;22;92432;-86
2023/07/29 10:12:09;;;;;;;8.60;3.20;;;24.70;63.80;;;;;;6142300;22;96808;-87
2023/07/29 10:14:36;;;;;;;12.73;3.17;;;24.70;63.40;;;;;;6142831;22;94078;-86
2023/07/29 10:17:03;;;;;;;6.78;2.70;;;24.50;63.20;;;;;;6143738;22;93173;-87
2023/07/29 10:19:30;;;;;;;10.23;3.33;;;24.60;63.00;;;;;;6141076;22;94323;-90
2023/07/29 10:22:02;;;;;;;7.18;3.38;;;24.50;63.10;;;;;;6142929;22;93021;-91
2023/07/29 10:24:32;;;;;;;8.20;2.70;;;24.50;63.30;;;;;;6145744;22;92622;-89
2023/07/29 10:26:59;;;;;;;8.43;2.72;;;24.50;63.00;;;;;;6145328;22;92660;-86
2023/07/29 10:29:31;;;;;;;6.70;2.33;;;24.60;62.80;;;;;;6144068;22;92811;-85
2023/07/29 10:32:00;;;;;;;6.72;2.47;;;24.60;62.50;;;;;;6144694;22;93336;-89
2023/07/29 10:34:25;;;;;;;4.47;2.03;;;24.70;62.60;;;;;;6143613;22;91923;-89
2023/07/29 10:36:52;;;;;;;10.70;2.35;;;24.70;63.10;;;;;;6144333;22;92352;-91
2023/07/29 10:39:18;;;;;;;5.50;2.20;;;24.70;63.70;;;;;;6143926;22;93385;-86
2023/07/29 10:41:56;;;;;;;3.38;2.03;;;24.80;63.00;;;;;;6142769;22;92589;-88
2023/07/29 10:44:41;;;;;;;4.10;2.05;;;24.70;62.80;;;;;;6143939;22;92060;-85
2023/07/29 10:47:14;;;;;;;7.10;2.47;;;24.70;63.00;;;;;;6143425;22;92385;-90
2023/07/29 10:49:41;;;;;;;7.10;2.47;;;24.60;63.00;;;;;;6143631;22;93285;-87
2023/07/29 10:52:07;;;;;;;9.15;2.60;;;24.60;63.20;;;;;;6140723;22;97028;-88
2023/07/29 10:54:42;;;;;;;3.63;2.22;;;24.60;63.10;;;;;;6143728;22;92841;-90
2023/07/29 10:57:16;;;;;;;5.53;2.63;;;24.70;63.10;;;;;;6145037;22;91712;-88
2023/07/29 10:59:57;;;;;;;8.30;2.55;;;24.70;62.70;;;;;;6145257;22;92749;-88
2023/07/29 11:02:30;;;;;;;8.90;2.58;;;24.70;62.40;;;;;;6144947;22;95871;-88
2023/07/29 11:04:56;;;;;;;3.58;1.90;;;24.70;62.30;;;;;;6144257;22;93416;-92
2023/07/29 11:07:28;;;;;;;6.20;2.33;;;24.70;62.10;;;;;;6140328;22;92533;-86
2023/07/29 11:10:06;;;;;;;5.45;2.28;;;24.70;62.10;;;;;;6140078;22;93214;-87
2023/07/29 11:12:54;;;;;;;5.53;2.47;;;24.80;62.40;;;;;;6142288;22;95263;-90
2023/07/29 11:15:27;;;;;;;8.48;2.70;;;24.70;62.20;;;;;;6145409;22;92812;-86
2023/07/29 11:17:55;;;;;;;7.90;1.98;;;24.70;62.60;;;;;;6145178;22;96702;-90
2023/07/29 11:20:23;;;;;;;9.32;2.80;;;24.60;62.00;;;;;;6140471;22;92455;-88
2023/07/29 11:22:49;;;;;;;6.78;2.13;;;24.60;62.30;;;;;;6143526;22;93035;-90
2023/07/29 11:25:16;;;;;;;6.35;2.22;;;24.60;62.30;;;;;;6145820;22;92230;-91
2023/07/29 11:27:42;;;;;;;4.55;2.17;;;24.50;62.50;;;;;;6146241;22;92525;-86
2023/07/29 11:30:11;;;;;;;5.45;2.10;;;24.40;63.00;;;;;;6144818;22;95526;-89
2023/07/29 11:32:38;;;;;;;5.50;2.23;;;24.30;63.50;;;;;;6145131;22;93259;-86
2023/07/29 11:35:12;;;;;;;3.92;2.28;;;24.30;63.60;;;;;;6144503;22;92410;-89
2023/07/29 11:37:39;;;;;;;4.22;2.22;;;24.20;64.70;;;;;;6146126;22;92434;-88
2023/07/29 11:40:06;;;;;;;2.90;2.00;;;24.10;65.20;;;;;;6145245;22;93092;-93
2023/07/29 11:42:34;;;;;;;5.97;2.15;;;24.00;65.80;;;;;;6146088;22;93412;-92
2023/07/29 11:45:00;;;;;;;3.88;1.90;;;24.00;65.80;;;;;;6145814;22;92723;-89
2023/07/29 11:47:26;;;;;;;4.95;2.13;;;24.00;67.10;;;;;;6145410;22;91862;-84
2023/07/29 11:49:52;;;;;;;6.70;1.88;;;24.00;67.90;;;;;;6146575;22;93231;-93
2023/07/29 11:52:19;;;;;;;5.05;1.92;;;24.00;68.60;;;;;;6143976;22;94540;-89
2023/07/29 11:54:46;;;;;;;6.22;2.10;;;24.00;70.00;;;;;;6143255;22;93296;-81
2023/07/29 11:57:14;;;;;;;4.90;2.38;;;24.00;71.00;;;;;;6120209;22;92621;-84
2023/07/29 11:59:46;;;;;;;6.13;2.40;;;24.00;70.50;;;;;;6165862;22;92575;-81
2023/07/29 12:02:15;;;;;;;4.40;2.58;;;24.10;70.50;;;;;;6171966;22;92736;-82
2023/07/29 12:04:59;;;;;;;7.22;3.63;;;24.00;70.90;;;;;;6168770;22;92249;-89
2023/07/29 12:07:30;;;;;;;7.30;3.92;;;24.00;72.50;;;;;;6173110;22;91996;-80
2023/07/29 12:09:59;;;;;;;6.63;2.78;;;24.10;72.80;;;;;;6174435;22;95215;-80
2023/07/29 12:12:29;;;;;;;3.50;2.20;;;24.10;71.80;;;;;;6176985;22;91882;-83
2023/07/29 12:14:56;;;;;;;5.13;2.10;;;24.00;70.90;;;;;;6162774;22;92618;-85
2023/07/29 12:17:22;;;;;;;3.95;2.08;;;24.00;70.80;;;;;;6153792;22;92464;-80
2023/07/29 12:19:49;;;;;;;3.85;1.73;;;23.90;70.90;;;;;;6155810;22;93547;-87
2023/07/29 12:22:21;;;;;;;3.67;2.28;;;23.90;71.10;;;;;;6143464;22;93067;-83
2023/07/29 12:24:47;;;;;;;6.18;2.40;;;23.90;71.90;;;;;;6136253;22;92706;-94
2023/07/29 12:27:15;;;;;;;6.03;2.53;;;24.00;72.00;;;;;;6138795;22;92455;-86
2023/07/29 12:29:42;;;;;;;7.72;2.63;;;24.00;71.70;;;;;;6135181;22;94015;-91
2023/07/29 12:32:07;;;;;;;5.55;2.40;;;23.90;71.90;;;;;;6137992;22;92480;-85
2023/07/29 12:34:35;;;;;;;9.40;2.80;;;23.90;72.20;;;;;;6148786;22;92649;-94
2023/07/29 12:37:08;;;;;;;4.82;2.30;;;23.80;71.90;;;;;;6143391;22;91710;-96
2023/07/29 12:39:41;;;;;;;5.80;2.50;;;23.90;71.60;;;;;;6148692;22;93156;-93
2023/07/29 12:42:07;;;;;;;6.07;2.42;;;23.90;71.60;;;;;;6146460;22;99219;-89
2023/07/29 12:44:35;;;;;;;5.72;2.22;;;23.90;71.80;;;;;;6144291;22;93519;-89
2023/07/29 12:47:02;;;;;;;4.70;1.98;;;23.90;71.60;;;;;;6147606;22;92389;-92